sensor_id;sensor_type;location;lat;lon;timestamp;P1;durP1;ratioP1;P2;durP2;ratioP2
65641;SDS011;52340;-6.720;108.544;2023-10-08T00:00:13;36.25;;;25.58;;
65641;SDS011;52340;-6.720;108.544;2023-10-08T00:01:15;36.33;;;25.35;;
65641;SDS011;52340;-6.720;108.544;2023-10-08T00:02:17;36.20;;;25.17;;
65641;SDS011;52340;-6.720;108.544;2023-10-08T00:03:19;35.72;;;24.90;;
65641;SDS011;52340;-6.720;108.544;2023-10-08T00:04:21;31.92;;;24.13;;
65641;SDS011;52340;-6.720;108.544;2023-10-08T00:05:23;33.72;;;24.63;;
65641;SDS011;52340;-6.720;108.544;2023-10-08T00:06:24;33.25;;;24.60;;
65641;SDS011;52340;-6.720;108.544;2023-10-08T00:07:27;36.08;;;24.35;;
65641;SDS011;52340;-6.720;108.544;2023-10-08T00:08:28;34.10;;;24.20;;
65641;SDS011;52340;-6.720;108.544;2023-10-08T00:09:30;34.88;;;24.05;;
65641;SDS011;52340;-6.720;108.544;2023-10-08T00:10:36;32.72;;;24.55;;
65641;SDS011;52340;-6.720;108.544;2023-10-08T00:11:38;31.70;;;23.73;;
65641;SDS011;52340;-6.720;108.544;2023-10-08T00:12:39;29.40;;;23.10;;
65641;SDS011;52340;-6.720;108.544;2023-10-08T00:13:41;32.03;;;23.48;;
65641;SDS011;52340;-6.720;108.544;2023-10-08T00:14:43;32.88;;;23.23;;
65641;SDS011;52340;-6.720;108.544;2023-10-08T00:15:45;33.70;;;23.70;;
65641;SDS011;52340;-6.720;108.544;2023-10-08T00:16:47;35.28;;;23.88;;
65641;SDS011;52340;-6.720;108.544;2023-10-08T00:17:48;30.63;;;23.13;;
65641;SDS011;52340;-6.720;108.544;2023-10-08T00:18:50;33.50;;;23.45;;
65641;SDS011;52340;-6.720;108.544;2023-10-08T00:19:52;30.90;;;22.55;;
65641;SDS011;52340;-6.720;108.544;2023-10-08T00:20:53;30.58;;;22.35;;
65641;SDS011;52340;-6.720;108.544;2023-10-08T00:21:55;30.90;;;22.30;;
65641;SDS011;52340;-6.720;108.544;2023-10-08T00:22:57;32.63;;;22.65;;
65641;SDS011;52340;-6.720;108.544;2023-10-08T00:23:58;31.40;;;23.00;;
65641;SDS011;52340;-6.720;108.544;2023-10-08T00:25:00;30.30;;;21.48;;
65641;SDS011;52340;-6.720;108.544;2023-10-08T00:26:03;34.50;;;22.95;;
65641;SDS011;52340;-6.720;108.544;2023-10-08T00:27:06;31.15;;;22.77;;
65641;SDS011;52340;-6.720;108.544;2023-10-08T00:28:08;30.35;;;21.50;;
65641;SDS011;52340;-6.720;108.544;2023-10-08T00:29:10;30.27;;;21.98;;
65641;SDS011;52340;-6.720;108.544;2023-10-08T00:30:12;32.13;;;22.15;;
65641;SDS011;52340;-6.720;108.544;2023-10-08T00:31:14;32.72;;;22.13;;
65641;SDS011;52340;-6.720;108.544;2023-10-08T00:32:16;31.40;;;22.10;;
65641;SDS011;52340;-6.720;108.544;2023-10-08T00:33:17;29.08;;;20.63;;
65641;SDS011;52340;-6.720;108.544;2023-10-08T00:34:19;29.63;;;21.77;;
65641;SDS011;52340;-6.720;108.544;2023-10-08T00:35:21;29.25;;;21.13;;
65641;SDS011;52340;-6.720;108.544;2023-10-08T00:36:22;28.40;;;21.10;;
65641;SDS011;52340;-6.720;108.544;2023-10-08T00:37:24;26.48;;;20.23;;
65641;SDS011;52340;-6.720;108.544;2023-10-08T00:38:26;27.45;;;20.98;;
65641;SDS011;52340;-6.720;108.544;2023-10-08T00:39:27;27.67;;;20.67;;
65641;SDS011;52340;-6.720;108.544;2023-10-08T00:40:35;28.60;;;21.00;;
65641;SDS011;52340;-6.720;108.544;2023-10-08T00:41:39;26.40;;;20.02;;
65641;SDS011;52340;-6.720;108.544;2023-10-08T00:42:41;29.27;;;19.98;;
65641;SDS011;52340;-6.720;108.544;2023-10-08T00:43:43;29.55;;;20.70;;
65641;SDS011;52340;-6.720;108.544;2023-10-08T00:44:44;27.60;;;20.27;;
65641;SDS011;52340;-6.720;108.544;2023-10-08T00:45:46;29.08;;;20.55;;
65641;SDS011;52340;-6.720;108.544;2023-10-08T00:46:48;27.92;;;21.13;;
65641;SDS011;52340;-6.720;108.544;2023-10-08T00:47:50;26.25;;;20.23;;
65641;SDS011;52340;-6.720;108.544;2023-10-08T00:48:53;26.55;;;19.50;;
65641;SDS011;52340;-6.720;108.544;2023-10-08T00:49:55;28.55;;;20.35;;
65641;SDS011;52340;-6.720;108.544;2023-10-08T00:50:57;27.75;;;19.92;;
65641;SDS011;52340;-6.720;108.544;2023-10-08T00:51:58;24.75;;;19.77;;
65641;SDS011;52340;-6.720;108.544;2023-10-08T00:53:00;23.73;;;19.75;;
65641;SDS011;52340;-6.720;108.544;2023-10-08T00:54:02;26.85;;;20.55;;
65641;SDS011;52340;-6.720;108.544;2023-10-08T00:55:05;28.95;;;19.95;;
65641;SDS011;52340;-6.720;108.544;2023-10-08T00:56:07;28.05;;;19.63;;
65641;SDS011;52340;-6.720;108.544;2023-10-08T00:57:11;26.35;;;20.08;;
65641;SDS011;52340;-6.720;108.544;2023-10-08T00:58:15;27.80;;;19.88;;
65641;SDS011;52340;-6.720;108.544;2023-10-08T00:59:17;26.52;;;20.10;;
65641;SDS011;52340;-6.720;108.544;2023-10-08T01:00:18;25.52;;;19.80;;
65641;SDS011;52340;-6.720;108.544;2023-10-08T01:01:20;24.42;;;19.63;;
65641;SDS011;52340;-6.720;108.544;2023-10-08T01:02:23;27.17;;;20.20;;
65641;SDS011;52340;-6.720;108.544;2023-10-08T01:03:26;29.63;;;20.30;;
65641;SDS011;52340;-6.720;108.544;2023-10-08T01:04:27;25.30;;;20.15;;
65641;SDS011;52340;-6.720;108.544;2023-10-08T01:05:29;26.70;;;20.05;;
65641;SDS011;52340;-6.720;108.544;2023-10-08T01:06:32;25.98;;;19.90;;
65641;SDS011;52340;-6.720;108.544;2023-10-08T01:07:33;25.65;;;19.95;;
65641;SDS011;52340;-6.720;108.544;2023-10-08T01:08:35;25.73;;;19.75;;
65641;SDS011;52340;-6.720;108.544;2023-10-08T01:09:37;26.50;;;20.00;;
65641;SDS011;52340;-6.720;108.544;2023-10-08T01:10:39;26.02;;;19.77;;
65641;SDS011;52340;-6.720;108.544;2023-10-08T01:11:40;25.40;;;20.02;;
65641;SDS011;52340;-6.720;108.544;2023-10-08T01:12:44;28.73;;;20.27;;
65641;SDS011;52340;-6.720;108.544;2023-10-08T01:13:45;26.13;;;20.08;;
65641;SDS011;52340;-6.720;108.544;2023-10-08T01:14:47;23.77;;;19.65;;
65641;SDS011;52340;-6.720;108.544;2023-10-08T01:15:49;28.75;;;19.17;;
65641;SDS011;52340;-6.720;108.544;2023-10-08T01:16:51;26.27;;;20.08;;
65641;SDS011;52340;-6.720;108.544;2023-10-08T01:17:52;25.40;;;19.42;;
65641;SDS011;52340;-6.720;108.544;2023-10-08T01:18:54;26.40;;;19.65;;
65641;SDS011;52340;-6.720;108.544;2023-10-08T01:19:55;26.90;;;20.13;;
65641;SDS011;52340;-6.720;108.544;2023-10-08T01:20:57;24.90;;;19.30;;
65641;SDS011;52340;-6.720;108.544;2023-10-08T01:22:05;25.40;;;18.98;;
65641;SDS011;52340;-6.720;108.544;2023-10-08T01:23:07;26.10;;;20.08;;
65641;SDS011;52340;-6.720;108.544;2023-10-08T01:24:09;26.25;;;19.45;;
65641;SDS011;52340;-6.720;108.544;2023-10-08T01:25:11;28.13;;;20.35;;
65641;SDS011;52340;-6.720;108.544;2023-10-08T01:26:13;25.50;;;20.60;;
65641;SDS011;52340;-6.720;108.544;2023-10-08T01:27:14;26.02;;;19.98;;
65641;SDS011;52340;-6.720;108.544;2023-10-08T01:28:16;24.63;;;19.85;;
65641;SDS011;52340;-6.720;108.544;2023-10-08T01:29:18;25.52;;;18.92;;
65641;SDS011;52340;-6.720;108.544;2023-10-08T01:30:20;24.95;;;19.13;;
65641;SDS011;52340;-6.720;108.544;2023-10-08T01:31:21;27.67;;;19.88;;
65641;SDS011;52340;-6.720;108.544;2023-10-08T01:32:23;22.92;;;18.85;;
65641;SDS011;52340;-6.720;108.544;2023-10-08T01:33:25;26.52;;;19.63;;
65641;SDS011;52340;-6.720;108.544;2023-10-08T01:34:27;26.48;;;19.60;;
65641;SDS011;52340;-6.720;108.544;2023-10-08T01:35:28;26.75;;;19.85;;
65641;SDS011;52340;-6.720;108.544;2023-10-08T01:36:30;27.30;;;19.63;;
65641;SDS011;52340;-6.720;108.544;2023-10-08T01:37:33;23.92;;;18.85;;
65641;SDS011;52340;-6.720;108.544;2023-10-08T01:38:35;25.05;;;19.58;;
65641;SDS011;52340;-6.720;108.544;2023-10-08T01:39:37;26.23;;;19.77;;
65641;SDS011;52340;-6.720;108.544;2023-10-08T01:40:39;28.88;;;18.98;;
65641;SDS011;52340;-6.720;108.544;2023-10-08T01:41:43;24.08;;;19.40;;
65641;SDS011;52340;-6.720;108.544;2023-10-08T01:42:45;25.00;;;18.98;;
65641;SDS011;52340;-6.720;108.544;2023-10-08T01:43:46;25.58;;;18.88;;
65641;SDS011;52340;-6.720;108.544;2023-10-08T01:44:48;27.27;;;18.42;;
65641;SDS011;52340;-6.720;108.544;2023-10-08T01:45:50;26.58;;;18.30;;
65641;SDS011;52340;-6.720;108.544;2023-10-08T01:46:52;25.63;;;17.83;;
65641;SDS011;52340;-6.720;108.544;2023-10-08T01:47:53;23.63;;;18.02;;
65641;SDS011;52340;-6.720;108.544;2023-10-08T01:48:55;25.77;;;17.58;;
65641;SDS011;52340;-6.720;108.544;2023-10-08T01:49:57;20.42;;;16.65;;
65641;SDS011;52340;-6.720;108.544;2023-10-08T01:50:58;26.80;;;16.90;;
65641;SDS011;52340;-6.720;108.544;2023-10-08T01:52:00;27.13;;;16.98;;
65641;SDS011;52340;-6.720;108.544;2023-10-08T01:53:04;23.48;;;16.95;;
65641;SDS011;52340;-6.720;108.544;2023-10-08T01:54:06;20.50;;;16.65;;
65641;SDS011;52340;-6.720;108.544;2023-10-08T01:55:07;21.90;;;17.42;;
65641;SDS011;52340;-6.720;108.544;2023-10-08T01:56:09;21.75;;;15.13;;
65641;SDS011;52340;-6.720;108.544;2023-10-08T01:57:11;21.10;;;15.90;;
65641;SDS011;52340;-6.720;108.544;2023-10-08T01:58:13;21.65;;;16.45;;
65641;SDS011;52340;-6.720;108.544;2023-10-08T01:59:15;21.25;;;16.70;;
65641;SDS011;52340;-6.720;108.544;2023-10-08T02:00:17;22.05;;;16.50;;
65641;SDS011;52340;-6.720;108.544;2023-10-08T02:01:19;22.35;;;16.98;;
65641;SDS011;52340;-6.720;108.544;2023-10-08T02:02:21;23.98;;;17.25;;
65641;SDS011;52340;-6.720;108.544;2023-10-08T02:03:23;23.38;;;17.15;;
65641;SDS011;52340;-6.720;108.544;2023-10-08T02:04:24;25.40;;;17.65;;
65641;SDS011;52340;-6.720;108.544;2023-10-08T02:05:26;25.27;;;17.70;;
65641;SDS011;52340;-6.720;108.544;2023-10-08T02:06:28;22.23;;;17.20;;
65641;SDS011;52340;-6.720;108.544;2023-10-08T02:07:29;19.48;;;15.50;;
65641;SDS011;52340;-6.720;108.544;2023-10-08T02:08:33;21.08;;;14.35;;
65641;SDS011;52340;-6.720;108.544;2023-10-08T02:09:34;23.13;;;15.40;;
65641;SDS011;52340;-6.720;108.544;2023-10-08T02:10:37;19.42;;;14.25;;
65641;SDS011;52340;-6.720;108.544;2023-10-08T02:11:45;18.27;;;14.07;;
65641;SDS011;52340;-6.720;108.544;2023-10-08T02:12:47;18.13;;;13.33;;
65641;SDS011;52340;-6.720;108.544;2023-10-08T02:13:49;20.17;;;13.82;;
65641;SDS011;52340;-6.720;108.544;2023-10-08T02:14:50;21.52;;;13.82;;
65641;SDS011;52340;-6.720;108.544;2023-10-08T02:15:52;18.30;;;13.43;;
65641;SDS011;52340;-6.720;108.544;2023-10-08T02:16:54;18.15;;;13.05;;
65641;SDS011;52340;-6.720;108.544;2023-10-08T02:17:55;18.38;;;13.05;;
65641;SDS011;52340;-6.720;108.544;2023-10-08T02:18:57;24.30;;;13.38;;
65641;SDS011;52340;-6.720;108.544;2023-10-08T02:19:59;20.38;;;13.77;;
65641;SDS011;52340;-6.720;108.544;2023-10-08T02:21:00;20.90;;;14.18;;
65641;SDS011;52340;-6.720;108.544;2023-10-08T02:22:02;17.08;;;13.23;;
65641;SDS011;52340;-6.720;108.544;2023-10-08T02:23:04;20.85;;;14.38;;
65641;SDS011;52340;-6.720;108.544;2023-10-08T02:24:08;19.17;;;14.32;;
65641;SDS011;52340;-6.720;108.544;2023-10-08T02:25:09;21.25;;;14.73;;
65641;SDS011;52340;-6.720;108.544;2023-10-08T02:26:11;21.40;;;14.60;;
65641;SDS011;52340;-6.720;108.544;2023-10-08T02:27:13;19.10;;;14.52;;
65641;SDS011;52340;-6.720;108.544;2023-10-08T02:28:14;20.95;;;14.70;;
65641;SDS011;52340;-6.720;108.544;2023-10-08T02:29:16;20.27;;;15.20;;
65641;SDS011;52340;-6.720;108.544;2023-10-08T02:30:18;19.70;;;15.07;;
65641;SDS011;52340;-6.720;108.544;2023-10-08T02:31:20;20.38;;;15.25;;
65641;SDS011;52340;-6.720;108.544;2023-10-08T02:32:21;20.42;;;14.95;;
65641;SDS011;52340;-6.720;108.544;2023-10-08T02:33:23;20.55;;;14.95;;
65641;SDS011;52340;-6.720;108.544;2023-10-08T02:34:27;19.40;;;15.10;;
65641;SDS011;52340;-6.720;108.544;2023-10-08T02:35:28;20.90;;;14.70;;
65641;SDS011;52340;-6.720;108.544;2023-10-08T02:36:30;20.88;;;14.50;;
65641;SDS011;52340;-6.720;108.544;2023-10-08T02:37:32;19.83;;;14.68;;
65641;SDS011;52340;-6.720;108.544;2023-10-08T02:38:34;19.23;;;14.70;;
65641;SDS011;52340;-6.720;108.544;2023-10-08T02:39:37;19.85;;;14.38;;
65641;SDS011;52340;-6.720;108.544;2023-10-08T02:40:39;20.95;;;15.32;;
65641;SDS011;52340;-6.720;108.544;2023-10-08T02:41:40;19.40;;;14.98;;
65641;SDS011;52340;-6.720;108.544;2023-10-08T02:42:43;21.20;;;14.75;;
65641;SDS011;52340;-6.720;108.544;2023-10-08T02:43:45;19.80;;;13.95;;
65641;SDS011;52340;-6.720;108.544;2023-10-08T02:44:46;20.60;;;13.50;;
65641;SDS011;52340;-6.720;108.544;2023-10-08T02:45:48;17.23;;;12.80;;
65641;SDS011;52340;-6.720;108.544;2023-10-08T02:46:50;19.38;;;12.45;;
65641;SDS011;52340;-6.720;108.544;2023-10-08T02:47:51;15.93;;;12.05;;
65641;SDS011;52340;-6.720;108.544;2023-10-08T02:48:53;16.88;;;11.57;;
65641;SDS011;52340;-6.720;108.544;2023-10-08T02:49:55;15.90;;;11.68;;
65641;SDS011;52340;-6.720;108.544;2023-10-08T02:50:57;17.75;;;11.68;;
65641;SDS011;52340;-6.720;108.544;2023-10-08T02:51:58;16.17;;;11.52;;
65641;SDS011;52340;-6.720;108.544;2023-10-08T02:53:00;18.60;;;12.18;;
65641;SDS011;52340;-6.720;108.544;2023-10-08T02:54:02;15.10;;;11.43;;
65641;SDS011;52340;-6.720;108.544;2023-10-08T02:55:06;17.55;;;11.73;;
65641;SDS011;52340;-6.720;108.544;2023-10-08T02:56:09;16.95;;;11.75;;
65641;SDS011;52340;-6.720;108.544;2023-10-08T02:57:10;16.35;;;11.20;;
65641;SDS011;52340;-6.720;108.544;2023-10-08T02:58:12;17.35;;;11.43;;
65641;SDS011;52340;-6.720;108.544;2023-10-08T02:59:14;14.88;;;11.25;;
65641;SDS011;52340;-6.720;108.544;2023-10-08T03:00:16;19.27;;;11.90;;
65641;SDS011;52340;-6.720;108.544;2023-10-08T03:01:18;17.30;;;10.85;;
65641;SDS011;52340;-6.720;108.544;2023-10-08T03:02:20;16.73;;;11.82;;
65641;SDS011;52340;-6.720;108.544;2023-10-08T03:03:21;17.15;;;11.73;;
65641;SDS011;52340;-6.720;108.544;2023-10-08T03:04:23;16.33;;;11.98;;
65641;SDS011;52340;-6.720;108.544;2023-10-08T03:05:25;15.73;;;11.55;;
65641;SDS011;52340;-6.720;108.544;2023-10-08T03:06:26;15.93;;;11.10;;
65641;SDS011;52340;-6.720;108.544;2023-10-08T03:07:28;17.30;;;11.95;;
65641;SDS011;52340;-6.720;108.544;2023-10-08T03:08:30;20.42;;;12.05;;
65641;SDS011;52340;-6.720;108.544;2023-10-08T03:09:32;14.90;;;11.65;;
65641;SDS011;52340;-6.720;108.544;2023-10-08T03:10:35;17.63;;;12.20;;
65641;SDS011;52340;-6.720;108.544;2023-10-08T03:11:38;17.17;;;12.50;;
65641;SDS011;52340;-6.720;108.544;2023-10-08T03:12:42;17.98;;;13.02;;
65641;SDS011;52340;-6.720;108.544;2023-10-08T03:13:47;17.10;;;13.20;;
65641;SDS011;52340;-6.720;108.544;2023-10-08T03:14:49;18.70;;;12.65;;
65641;SDS011;52340;-6.720;108.544;2023-10-08T03:15:50;17.50;;;12.93;;
65641;SDS011;52340;-6.720;108.544;2023-10-08T03:16:52;16.27;;;12.75;;
65641;SDS011;52340;-6.720;108.544;2023-10-08T03:17:54;17.55;;;12.57;;
65641;SDS011;52340;-6.720;108.544;2023-10-08T03:18:56;18.50;;;12.48;;
65641;SDS011;52340;-6.720;108.544;2023-10-08T03:19:58;18.20;;;13.02;;
65641;SDS011;52340;-6.720;108.544;2023-10-08T03:21:00;18.05;;;12.85;;
65641;SDS011;52340;-6.720;108.544;2023-10-08T03:22:01;22.08;;;13.30;;
65641;SDS011;52340;-6.720;108.544;2023-10-08T03:23:03;18.52;;;13.80;;
65641;SDS011;52340;-6.720;108.544;2023-10-08T03:24:07;20.20;;;13.55;;
65641;SDS011;52340;-6.720;108.544;2023-10-08T03:25:08;20.48;;;13.55;;
65641;SDS011;52340;-6.720;108.544;2023-10-08T03:26:13;19.38;;;14.43;;
65641;SDS011;52340;-6.720;108.544;2023-10-08T03:27:15;19.27;;;13.70;;
65641;SDS011;52340;-6.720;108.544;2023-10-08T03:28:16;18.83;;;13.95;;
65641;SDS011;52340;-6.720;108.544;2023-10-08T03:29:18;17.35;;;13.60;;
65641;SDS011;52340;-6.720;108.544;2023-10-08T03:30:20;18.98;;;13.80;;
65641;SDS011;52340;-6.720;108.544;2023-10-08T03:31:22;17.30;;;13.07;;
65641;SDS011;52340;-6.720;108.544;2023-10-08T03:32:23;17.38;;;13.07;;
65641;SDS011;52340;-6.720;108.544;2023-10-08T03:33:25;18.23;;;12.85;;
65641;SDS011;52340;-6.720;108.544;2023-10-08T03:34:29;17.80;;;13.40;;
65641;SDS011;52340;-6.720;108.544;2023-10-08T03:35:31;16.88;;;12.88;;
65641;SDS011;52340;-6.720;108.544;2023-10-08T03:36:35;17.95;;;12.55;;
65641;SDS011;52340;-6.720;108.544;2023-10-08T03:37:37;18.40;;;12.90;;
65641;SDS011;52340;-6.720;108.544;2023-10-08T03:38:39;17.90;;;13.20;;
65641;SDS011;52340;-6.720;108.544;2023-10-08T03:39:41;19.83;;;13.15;;
65641;SDS011;52340;-6.720;108.544;2023-10-08T03:40:43;24.13;;;15.48;;
65641;SDS011;52340;-6.720;108.544;2023-10-08T03:41:49;20.30;;;14.60;;
65641;SDS011;52340;-6.720;108.544;2023-10-08T03:42:51;21.05;;;15.50;;
65641;SDS011;52340;-6.720;108.544;2023-10-08T03:43:53;21.30;;;15.43;;
65641;SDS011;52340;-6.720;108.544;2023-10-08T03:44:55;23.98;;;15.63;;
65641;SDS011;52340;-6.720;108.544;2023-10-08T03:45:56;23.13;;;16.15;;
65641;SDS011;52340;-6.720;108.544;2023-10-08T03:46:58;24.05;;;16.75;;
65641;SDS011;52340;-6.720;108.544;2023-10-08T03:48:00;25.00;;;17.63;;
65641;SDS011;52340;-6.720;108.544;2023-10-08T03:49:01;24.33;;;17.08;;
65641;SDS011;52340;-6.720;108.544;2023-10-08T03:50:03;25.58;;;15.95;;
65641;SDS011;52340;-6.720;108.544;2023-10-08T03:51:06;25.60;;;15.25;;
65641;SDS011;52340;-6.720;108.544;2023-10-08T03:52:08;20.63;;;13.77;;
65641;SDS011;52340;-6.720;108.544;2023-10-08T03:53:10;20.15;;;14.20;;
65641;SDS011;52340;-6.720;108.544;2023-10-08T03:54:11;20.17;;;13.75;;
65641;SDS011;52340;-6.720;108.544;2023-10-08T03:55:13;22.55;;;14.27;;
65641;SDS011;52340;-6.720;108.544;2023-10-08T03:56:15;20.30;;;13.98;;
65641;SDS011;52340;-6.720;108.544;2023-10-08T03:57:18;17.88;;;13.82;;
65641;SDS011;52340;-6.720;108.544;2023-10-08T03:58:20;26.10;;;16.15;;
65641;SDS011;52340;-6.720;108.544;2023-10-08T03:59:21;21.42;;;14.73;;
65641;SDS011;52340;-6.720;108.544;2023-10-08T04:00:23;22.65;;;15.55;;
65641;SDS011;52340;-6.720;108.544;2023-10-08T04:01:25;18.77;;;14.45;;
65641;SDS011;52340;-6.720;108.544;2023-10-08T04:02:26;24.02;;;14.88;;
65641;SDS011;52340;-6.720;108.544;2023-10-08T04:03:28;22.48;;;14.98;;
65641;SDS011;52340;-6.720;108.544;2023-10-08T04:04:30;19.92;;;15.13;;
65641;SDS011;52340;-6.720;108.544;2023-10-08T04:05:31;19.20;;;14.80;;
65641;SDS011;52340;-6.720;108.544;2023-10-08T04:06:34;22.00;;;14.45;;
65641;SDS011;52340;-6.720;108.544;2023-10-08T04:07:35;22.38;;;14.25;;
65641;SDS011;52340;-6.720;108.544;2023-10-08T04:08:37;20.02;;;14.68;;
65641;SDS011;52340;-6.720;108.544;2023-10-08T04:09:38;19.33;;;14.05;;
65641;SDS011;52340;-6.720;108.544;2023-10-08T04:10:40;20.75;;;13.70;;
65641;SDS011;52340;-6.720;108.544;2023-10-08T04:11:42;21.42;;;14.07;;
65641;SDS011;52340;-6.720;108.544;2023-10-08T04:12:45;22.63;;;13.60;;
65641;SDS011;52340;-6.720;108.544;2023-10-08T04:13:47;18.92;;;12.82;;
65641;SDS011;52340;-6.720;108.544;2023-10-08T04:14:49;19.73;;;12.98;;
65641;SDS011;52340;-6.720;108.544;2023-10-08T04:15:50;21.83;;;12.77;;
65641;SDS011;52340;-6.720;108.544;2023-10-08T04:16:52;20.17;;;13.20;;
65641;SDS011;52340;-6.720;108.544;2023-10-08T04:17:53;20.00;;;13.02;;
65641;SDS011;52340;-6.720;108.544;2023-10-08T04:18:55;18.23;;;12.38;;
65641;SDS011;52340;-6.720;108.544;2023-10-08T04:19:57;20.60;;;12.23;;
65641;SDS011;52340;-6.720;108.544;2023-10-08T04:20:58;20.98;;;12.20;;
65641;SDS011;52340;-6.720;108.544;2023-10-08T04:22:00;20.25;;;12.00;;
65641;SDS011;52340;-6.720;108.544;2023-10-08T04:23:02;19.02;;;11.57;;
65641;SDS011;52340;-6.720;108.544;2023-10-08T04:24:05;18.02;;;12.05;;
65641;SDS011;52340;-6.720;108.544;2023-10-08T04:25:07;19.60;;;12.30;;
65641;SDS011;52340;-6.720;108.544;2023-10-08T04:26:09;19.52;;;12.10;;
65641;SDS011;52340;-6.720;108.544;2023-10-08T04:27:10;18.75;;;12.15;;
65641;SDS011;52340;-6.720;108.544;2023-10-08T04:28:14;17.52;;;12.18;;
65641;SDS011;52340;-6.720;108.544;2023-10-08T04:29:15;20.20;;;12.98;;
65641;SDS011;52340;-6.720;108.544;2023-10-08T04:30:17;18.50;;;12.73;;
65641;SDS011;52340;-6.720;108.544;2023-10-08T04:31:19;17.27;;;12.52;;
65641;SDS011;52340;-6.720;108.544;2023-10-08T04:32:21;19.05;;;12.52;;
65641;SDS011;52340;-6.720;108.544;2023-10-08T04:33:23;18.40;;;12.80;;
65641;SDS011;52340;-6.720;108.544;2023-10-08T04:34:24;19.27;;;13.43;;
65641;SDS011;52340;-6.720;108.544;2023-10-08T04:35:26;19.08;;;13.10;;
65641;SDS011;52340;-6.720;108.544;2023-10-08T04:36:28;16.52;;;12.10;;
65641;SDS011;52340;-6.720;108.544;2023-10-08T04:37:29;17.08;;;12.48;;
65641;SDS011;52340;-6.720;108.544;2023-10-08T04:38:31;17.65;;;13.00;;
65641;SDS011;52340;-6.720;108.544;2023-10-08T04:39:33;20.38;;;12.88;;
65641;SDS011;52340;-6.720;108.544;2023-10-08T04:40:34;17.20;;;12.77;;
65641;SDS011;52340;-6.720;108.544;2023-10-08T04:41:36;19.40;;;12.88;;
65641;SDS011;52340;-6.720;108.544;2023-10-08T04:42:38;18.15;;;12.98;;
65641;SDS011;52340;-6.720;108.544;2023-10-08T04:43:41;19.77;;;12.70;;
65641;SDS011;52340;-6.720;108.544;2023-10-08T04:44:43;17.92;;;12.60;;
65641;SDS011;52340;-6.720;108.544;2023-10-08T04:45:45;21.27;;;11.80;;
65641;SDS011;52340;-6.720;108.544;2023-10-08T04:46:46;18.23;;;12.85;;
65641;SDS011;52340;-6.720;108.544;2023-10-08T04:47:48;17.20;;;12.85;;
65641;SDS011;52340;-6.720;108.544;2023-10-08T04:48:50;18.40;;;12.88;;
65641;SDS011;52340;-6.720;108.544;2023-10-08T04:49:51;19.88;;;14.13;;
65641;SDS011;52340;-6.720;108.544;2023-10-08T04:50:53;19.10;;;12.48;;
65641;SDS011;52340;-6.720;108.544;2023-10-08T04:51:55;20.02;;;13.60;;
65641;SDS011;52340;-6.720;108.544;2023-10-08T04:52:58;19.80;;;13.30;;
65641;SDS011;52340;-6.720;108.544;2023-10-08T04:53:59;19.27;;;12.55;;
65641;SDS011;52340;-6.720;108.544;2023-10-08T04:55:01;17.60;;;13.38;;
65641;SDS011;52340;-6.720;108.544;2023-10-08T04:56:03;17.52;;;12.85;;
65641;SDS011;52340;-6.720;108.544;2023-10-08T04:57:06;19.48;;;13.82;;
65641;SDS011;52340;-6.720;108.544;2023-10-08T04:58:08;24.73;;;14.52;;
65641;SDS011;52340;-6.720;108.544;2023-10-08T04:59:11;22.58;;;15.20;;
65641;SDS011;52340;-6.720;108.544;2023-10-08T05:00:13;26.13;;;17.02;;
65641;SDS011;52340;-6.720;108.544;2023-10-08T05:01:15;33.05;;;21.60;;
65641;SDS011;52340;-6.720;108.544;2023-10-08T05:02:18;44.10;;;25.65;;
65641;SDS011;52340;-6.720;108.544;2023-10-08T05:03:20;38.80;;;24.27;;
65641;SDS011;52340;-6.720;108.544;2023-10-08T05:04:21;28.45;;;19.45;;
65641;SDS011;52340;-6.720;108.544;2023-10-08T05:05:23;27.27;;;18.27;;
65641;SDS011;52340;-6.720;108.544;2023-10-08T05:06:25;29.00;;;19.08;;
65641;SDS011;52340;-6.720;108.544;2023-10-08T05:07:27;29.23;;;18.95;;
65641;SDS011;52340;-6.720;108.544;2023-10-08T05:08:29;26.02;;;16.55;;
65641;SDS011;52340;-6.720;108.544;2023-10-08T05:09:30;25.77;;;16.95;;
65641;SDS011;52340;-6.720;108.544;2023-10-08T05:10:32;26.05;;;16.95;;
65641;SDS011;52340;-6.720;108.544;2023-10-08T05:11:34;25.30;;;15.70;;
65641;SDS011;52340;-6.720;108.544;2023-10-08T05:12:35;22.98;;;15.35;;
65641;SDS011;52340;-6.720;108.544;2023-10-08T05:13:37;24.33;;;14.65;;
65641;SDS011;52340;-6.720;108.544;2023-10-08T05:14:41;24.98;;;14.73;;
65641;SDS011;52340;-6.720;108.544;2023-10-08T05:15:43;20.42;;;13.90;;
65641;SDS011;52340;-6.720;108.544;2023-10-08T05:16:44;18.55;;;13.68;;
65641;SDS011;52340;-6.720;108.544;2023-10-08T05:17:46;24.23;;;16.70;;
65641;SDS011;52340;-6.720;108.544;2023-10-08T05:18:49;29.15;;;17.48;;
65641;SDS011;52340;-6.720;108.544;2023-10-08T05:19:50;34.15;;;19.08;;
65641;SDS011;52340;-6.720;108.544;2023-10-08T05:20:52;32.58;;;19.63;;
65641;SDS011;52340;-6.720;108.544;2023-10-08T05:21:54;38.13;;;22.50;;
65641;SDS011;52340;-6.720;108.544;2023-10-08T05:22:55;32.38;;;19.50;;
65641;SDS011;52340;-6.720;108.544;2023-10-08T05:23:57;27.88;;;17.90;;
65641;SDS011;52340;-6.720;108.544;2023-10-08T05:25:00;26.15;;;16.75;;
65641;SDS011;52340;-6.720;108.544;2023-10-08T05:26:02;21.23;;;15.25;;
65641;SDS011;52340;-6.720;108.544;2023-10-08T05:27:05;22.35;;;14.93;;
65641;SDS011;52340;-6.720;108.544;2023-10-08T05:28:07;23.92;;;13.40;;
65641;SDS011;52340;-6.720;108.544;2023-10-08T05:29:09;20.73;;;13.20;;
65641;SDS011;52340;-6.720;108.544;2023-10-08T05:30:12;20.90;;;13.85;;
65641;SDS011;52340;-6.720;108.544;2023-10-08T05:31:14;20.67;;;14.68;;
65641;SDS011;52340;-6.720;108.544;2023-10-08T05:32:16;19.58;;;12.75;;
65641;SDS011;52340;-6.720;108.544;2023-10-08T05:33:18;21.80;;;13.48;;
65641;SDS011;52340;-6.720;108.544;2023-10-08T05:34:20;19.45;;;13.40;;
65641;SDS011;52340;-6.720;108.544;2023-10-08T05:35:21;20.08;;;13.00;;
65641;SDS011;52340;-6.720;108.544;2023-10-08T05:36:23;21.77;;;12.95;;
65641;SDS011;52340;-6.720;108.544;2023-10-08T05:37:25;18.13;;;12.50;;
65641;SDS011;52340;-6.720;108.544;2023-10-08T05:38:27;19.30;;;13.02;;
65641;SDS011;52340;-6.720;108.544;2023-10-08T05:39:29;18.80;;;12.68;;
65641;SDS011;52340;-6.720;108.544;2023-10-08T05:40:30;21.40;;;13.65;;
65641;SDS011;52340;-6.720;108.544;2023-10-08T05:41:32;21.83;;;13.13;;
65641;SDS011;52340;-6.720;108.544;2023-10-08T05:42:34;19.05;;;12.90;;
65641;SDS011;52340;-6.720;108.544;2023-10-08T05:43:35;23.45;;;14.48;;
65641;SDS011;52340;-6.720;108.544;2023-10-08T05:44:38;27.73;;;16.88;;
65641;SDS011;52340;-6.720;108.544;2023-10-08T05:45:41;30.55;;;18.75;;
65641;SDS011;52340;-6.720;108.544;2023-10-08T05:46:43;28.52;;;17.65;;
65641;SDS011;52340;-6.720;108.544;2023-10-08T05:47:45;27.75;;;17.15;;
65641;SDS011;52340;-6.720;108.544;2023-10-08T05:48:46;26.38;;;14.80;;
65641;SDS011;52340;-6.720;108.544;2023-10-08T05:49:49;20.25;;;15.05;;
65641;SDS011;52340;-6.720;108.544;2023-10-08T05:50:51;18.67;;;14.30;;
65641;SDS011;52340;-6.720;108.544;2023-10-08T05:51:53;23.92;;;15.93;;